Iwanui, Waitara Historical Data
Daily Summary for November 10, 2018 Units:  English    Metric   Both
« Previous Day
Next Day »
Daily Weekly Monthly Yearly Custom
  High: Low: Average:
Temperature: 71.6 °F 43.2 °F 58.1 °F
Dew Point: 55.1 °F 40.4 °F 45.7 °F
Humidity: 95% 39% 67%
Wind Speed: 12.1mph 0.0mph 3.4mph
Wind Gust: 19.7mph - -
Wind- - SSE
Pressure: 30.20 in 29.96 in -
Precipitation: 0.01 in    
Historical Graphs
 
 
Tabular Data for November 10, 2018
Time Temperature Dew Point Pressure Wind Wind Speed Wind Gust Humidity Rainfall Rate (Hourly)
00:04 50.2 °F 48.0 °F 29.97 in North 0.7 mph 3.8 mph 92% 0.00 in
00:09 50.2 °F 48.0 °F 29.97 in NNE 2.2 mph 4.5 mph 92% 0.00 in
00:14 50.4 °F 48.1 °F 29.96 in NNE 5.4 mph 6.9 mph 92% 0.00 in
00:19 50.7 °F 48.8 °F 29.96 in NNE 3.1 mph 6.9 mph 93% 0.00 in
00:24 51.1 °F 48.8 °F 29.96 in NE 4.5 mph 6.9 mph 92% 0.00 in
00:29 51.3 °F 49.0 °F 29.96 in NE 3.1 mph 9.8 mph 92% 0.00 in
00:34 51.3 °F 49.0 °F 29.96 in ENE 3.8 mph 9.8 mph 92% 0.00 in
00:39 51.1 °F 48.5 °F 29.96 in East 1.6 mph 6.9 mph 91% 0.00 in
00:44 50.7 °F 48.2 °F 29.97 in Calm   6.0 mph 91% 0.00 in
00:50 50.2 °F 47.7 °F 29.97 in SSW 1.6 mph 2.2 mph 91% 0.00 in
00:54 49.8 °F 47.6 °F 29.97 in Calm   2.2 mph 92% 0.00 in
00:59 49.3 °F 46.8 °F 29.97 in Calm   3.1 mph 91% 0.00 in
01:04 48.9 °F 46.4 °F 29.97 in West 0.7 mph 3.1 mph 91% 0.00 in
01:10 48.7 °F 46.2 °F 29.97 in SW 0.7 mph 3.1 mph 91% 0.00 in
01:14 48.4 °F 45.9 °F 29.97 in SE 0.7 mph 3.1 mph 91% 0.00 in
01:19 48.4 °F 45.9 °F 29.97 in SSE 1.6 mph 3.1 mph 91% 0.00 in
01:25 48.4 °F 45.9 °F 29.97 in SE 1.6 mph 3.1 mph 91% 0.00 in
01:29 48.0 °F 45.8 °F 29.97 in SE 0.7 mph 3.1 mph 92% 0.00 in
01:34 47.8 °F 45.6 °F 29.97 in SSE 0.7 mph 3.1 mph 92% 0.00 in
01:40 47.5 °F 45.3 °F 29.97 in SE 3.1 mph 5.4 mph 92% 0.00 in
01:44 47.7 °F 45.5 °F 29.97 in SSE 2.2 mph 5.4 mph 92% 0.00 in
01:50 47.7 °F 45.5 °F 29.97 in Calm   4.5 mph 92% 0.00 in
01:55 47.3 °F 45.1 °F 29.98 in SSW 2.2 mph 4.5 mph 92% 0.00 in
01:59 47.1 °F 44.9 °F 29.98 in SSW 2.2 mph 6.0 mph 92% 0.00 in
02:04 47.5 °F 45.6 °F 29.98 in SSW 1.6 mph 8.3 mph 93% 0.00 in
02:09 47.5 °F 45.6 °F 29.98 in SSW 3.8 mph 8.3 mph 93% 0.00 in
02:14 47.5 °F 45.6 °F 29.98 in South 2.2 mph 4.5 mph 93% 0.00 in
02:20 47.5 °F 45.6 °F 29.98 in South 1.6 mph 4.5 mph 93% 0.00 in
02:25 47.5 °F 45.6 °F 29.98 in Calm   3.8 mph 93% 0.00 in
02:29 47.5 °F 45.6 °F 29.98 in Calm   2.2 mph 93% 0.00 in
02:35 47.5 °F 45.6 °F 29.99 in Calm   0.7 mph 93% 0.00 in
02:39 47.7 °F 45.7 °F 29.99 in SSW 0.7 mph 1.6 mph 93% 0.00 in
02:45 47.8 °F 45.9 °F 29.99 in Calm   1.6 mph 93% 0.00 in
02:50 47.8 °F 46.2 °F 29.99 in SSW 1.6 mph 3.1 mph 94% 0.00 in
02:55 48.0 °F 46.4 °F 29.99 in Calm   3.1 mph 94% 0.00 in
02:59 48.0 °F 46.4 °F 29.98 in Calm   3.1 mph 94% 0.00 in
03:05 48.0 °F 46.4 °F 29.98 in Calm     94% 0.00 in
03:09 47.5 °F 45.8 °F 29.98 in Calm     94% 0.00 in
03:14 47.3 °F 45.7 °F 29.98 in ENE 1.6 mph 2.2 mph 94% 0.00 in
03:20 47.1 °F 45.5 °F 29.99 in Calm   2.2 mph 94% 0.00 in
03:25 46.2 °F 44.3 °F 29.99 in ESE 0.7 mph 2.2 mph 93% 0.01 in
03:30 45.5 °F 43.6 °F 29.99 in East 0.7 mph 3.1 mph 93% 0.01 in
03:35 45.5 °F 43.6 °F 29.99 in Calm   3.1 mph 93% 0.01 in
03:39 45.5 °F 43.6 °F 29.99 in SE 1.6 mph 3.8 mph 93% 0.01 in
03:45 45.5 °F 43.6 °F 29.99 in SSE 1.6 mph 3.8 mph 93% 0.01 in
03:49 45.5 °F 43.6 °F 29.99 in SE 0.7 mph 3.8 mph 93% 0.01 in
03:54 45.5 °F 43.6 °F 29.99 in SSE 0.7 mph 2.2 mph 93% 0.01 in
04:00 45.5 °F 43.6 °F 30.00 in South 0.7 mph 2.2 mph 93% 0.01 in
04:05 45.5 °F 43.6 °F 30.00 in Calm   2.2 mph 93% 0.01 in
04:09 45.5 °F 43.9 °F 30.00 in Calm   2.2 mph 94% 0.01 in
04:14 45.3 °F 43.7 °F 29.99 in Calm   0.7 mph 94% 0.01 in
04:19 45.1 °F 43.2 °F 30.00 in Calm   1.6 mph 93% 0.01 in
04:25 45.1 °F 43.5 °F 30.00 in Calm   2.2 mph 94% 0.00 in
04:29 45.1 °F 43.5 °F 29.99 in SSE 1.6 mph 3.8 mph 94% 0.00 in
04:34 45.5 °F 43.9 °F 30.00 in South 1.6 mph 3.8 mph 94% 0.00 in
04:39 45.5 °F 43.9 °F 30.00 in SSE 1.6 mph 3.8 mph 94% 0.00 in
04:45 45.5 °F 43.9 °F 30.00 in SSE 3.1 mph 6.9 mph 94% 0.00 in
04:49 45.5 °F 43.9 °F 30.00 in SSE 3.1 mph 6.9 mph 94% 0.00 in
04:54 45.5 °F 43.9 °F 30.01 in SSE 1.6 mph 6.9 mph 94% 0.00 in
04:59 45.5 °F 43.9 °F 30.01 in South 1.6 mph 4.5 mph 94% 0.00 in
05:05 45.5 °F 43.9 °F 30.01 in Calm   3.1 mph 94% 0.00 in
05:10 45.1 °F 43.5 °F 30.01 in SSW 1.6 mph 2.2 mph 94% 0.00 in
05:14 44.8 °F 43.2 °F 30.02 in Calm   2.2 mph 94% 0.00 in
05:20 44.4 °F 43.1 °F 30.01 in Calm   2.2 mph 95% 0.00 in
05:24 44.1 °F 42.7 °F 30.02 in SSW 0.7 mph 1.6 mph 95% 0.00 in
05:29 43.9 °F 42.5 °F 30.02 in Calm   1.6 mph 95% 0.00 in
05:35 43.7 °F 42.4 °F 30.02 in Calm   1.6 mph 95% 0.00 in
05:39 43.7 °F 42.4 °F 30.02 in Calm   0.7 mph 95% 0.00 in
05:44 43.7 °F 42.4 °F 30.02 in Calm   0.7 mph 95% 0.00 in
05:49 43.5 °F 42.2 °F 30.02 in Calm   0.7 mph 95% 0.00 in
05:54 43.5 °F 42.2 °F 30.02 in Calm   0.7 mph 95% 0.00 in
05:59 43.3 °F 41.7 °F 30.03 in Calm   0.7 mph 94% 0.00 in
06:05 43.2 °F 41.6 °F 30.03 in South 2.2 mph 3.8 mph 94% 0.00 in
06:10 43.5 °F 42.2 °F 30.03 in South 2.2 mph 3.8 mph 95% 0.00 in
06:14 43.9 °F 42.5 °F 30.03 in South 0.7 mph 3.8 mph 95% 0.00 in
06:20 43.9 °F 42.5 °F 30.03 in SSW 1.6 mph 3.8 mph 95% 0.00 in
06:25 43.9 °F 42.5 °F 30.03 in Calm   3.1 mph 95% 0.00 in
06:29 43.7 °F 42.4 °F 30.04 in SSW 0.7 mph 2.2 mph 95% 0.00 in
06:34 43.7 °F 42.4 °F 30.04 in Calm   2.2 mph 95% 0.00 in
06:40 43.7 °F 42.4 °F 30.04 in Calm   1.6 mph 95% 0.00 in
06:45 44.1 °F 42.7 °F 30.04 in Calm   2.2 mph 95% 0.00 in
06:49 44.4 °F 43.1 °F 30.04 in SSE 0.7 mph 2.2 mph 95% 0.00 in
06:54 44.8 °F 43.4 °F 30.04 in Calm   2.2 mph 95% 0.00 in
06:59 46.2 °F 44.9 °F 30.05 in Calm   2.2 mph 95% 0.00 in
07:04 48.0 °F 46.7 °F 30.05 in SSW 1.6 mph 4.5 mph 95% 0.00 in
07:09 48.7 °F 47.1 °F 30.05 in Calm   5.4 mph 94% 0.00 in
07:14 50.5 °F 48.9 °F 30.06 in SE 0.7 mph 5.4 mph 94% 0.00 in
07:20 51.3 °F 49.6 °F 30.06 in SSE 1.6 mph 3.8 mph 94% 0.00 in
07:24 52.3 °F 50.4 °F 30.06 in SSW 0.7 mph 3.8 mph 93% 0.00 in
07:29 53.4 °F 51.2 °F 30.06 in SSW 2.2 mph 3.1 mph 92% 0.00 in
07:34 53.4 °F 50.9 °F 30.06 in Calm   3.1 mph 91% 0.00 in
07:39 53.2 °F 50.7 °F 30.07 in Calm   3.1 mph 91% 0.00 in
07:44 52.7 °F 49.9 °F 30.07 in SSE 0.7 mph 3.1 mph 90% 0.00 in
07:50 52.7 °F 49.9 °F 30.07 in SSE 0.7 mph 3.1 mph 90% 0.00 in
07:55 52.7 °F 49.9 °F 30.07 in SSE 3.1 mph 4.5 mph 90% 0.00 in
07:59 52.7 °F 49.9 °F 30.07 in SSE 2.2 mph 4.5 mph 90% 0.00 in
08:04 53.2 °F 50.1 °F 30.07 in SSE 0.7 mph 4.5 mph 89% 0.00 in
08:09 54.1 °F 50.7 °F 30.08 in South 1.6 mph 3.8 mph 88% 0.00 in
08:14 54.7 °F 50.9 °F 30.08 in Calm   3.1 mph 87% 0.00 in
08:20 58.3 °F 54.1 °F 30.08 in SSE 1.6 mph 3.8 mph 86% 0.00 in
08:24 60.3 °F 55.1 °F 30.08 in SSE 2.2 mph 6.0 mph 83% 0.00 in
08:29 59.4 °F 52.2 °F 30.08 in Calm   6.0 mph 77% 0.00 in
08:35 59.4 °F 51.1 °F 30.07 in ESE 2.2 mph 3.8 mph 74% 0.00 in
08:39 61.9 °F 52.8 °F 30.08 in East 0.7 mph 3.8 mph 72% 0.00 in
08:45 64.8 °F 53.2 °F 30.08 in ESE 3.1 mph 4.5 mph 66% 0.00 in
08:49 64.9 °F 51.6 °F 30.08 in SE 0.7 mph 4.5 mph 62% 0.00 in
08:54 65.3 °F 51.5 °F 30.08 in SE 1.6 mph 4.5 mph 61% 0.00 in
08:59 65.8 °F 51.1 °F 30.08 in East 0.7 mph 4.5 mph 59% 0.00 in
09:05 65.1 °F 49.5 °F 30.09 in ESE 1.6 mph 5.4 mph 57% 0.00 in
09:09 63.9 °F 48.8 °F 30.09 in SE 3.1 mph 6.0 mph 58% 0.00 in
09:14 62.6 °F 47.6 °F 30.09 in ESE 1.6 mph 6.0 mph 58% 0.00 in
09:19 63.1 °F 48.6 °F 30.09 in ESE 3.1 mph 6.0 mph 59% 0.00 in
09:25 63.3 °F 47.4 °F 30.09 in ESE 1.6 mph 6.0 mph 56% 0.00 in
09:29 63.5 °F 48.5 °F 30.09 in ESE 2.2 mph 6.0 mph 58% 0.00 in
09:34 63.3 °F 48.3 °F 30.09 in ESE 1.6 mph 4.5 mph 58% 0.00 in
09:39 63.1 °F 48.6 °F 30.09 in SE 2.2 mph 6.9 mph 59% 0.00 in
09:44 63.0 °F 48.9 °F 30.09 in SE 3.8 mph 7.6 mph 60% 0.00 in
09:49 62.4 °F 48.4 °F 30.09 in SE 3.1 mph 7.6 mph 60% 0.00 in
09:54 62.1 °F 47.6 °F 30.10 in SE 3.8 mph 7.6 mph 59% 0.00 in
10:00 62.2 °F 48.2 °F 30.10 in ESE 3.1 mph 7.6 mph 60% 0.00 in
10:05 62.2 °F 47.3 °F 30.10 in SE 0.7 mph 6.0 mph 58% 0.00 in
10:09 63.3 °F 46.9 °F 30.10 in East 2.2 mph 3.8 mph 55% 0.00 in
10:14 64.6 °F 47.6 °F 30.10 in ESE 2.2 mph 3.8 mph 54% 0.00 in
10:20 66.4 °F 47.7 °F 30.10 in SE 1.6 mph 3.8 mph 51% 0.00 in
10:24 67.1 °F 46.8 °F 30.11 in South 2.2 mph 5.4 mph 48% 0.00 in
10:29 66.7 °F 48.1 °F 30.10 in SSW 2.2 mph 5.4 mph 51% 0.00 in
10:35 67.1 °F 47.9 °F 30.11 in South 2.2 mph 4.5 mph 50% 0.00 in
10:40 67.1 °F 47.9 °F 30.11 in SSE 1.6 mph 5.4 mph 50% 0.00 in
10:44 68.0 °F 48.1 °F 30.10 in SSE 3.1 mph 6.0 mph 49% 0.00 in
10:49 67.5 °F 48.7 °F 30.11 in Calm   6.0 mph 51% 0.00 in
10:54 67.3 °F 48.6 °F 30.11 in SSW 1.6 mph 6.0 mph 51% 0.00 in
11:00 67.3 °F 48.6 °F 30.11 in SSW 0.7 mph 3.8 mph 51% 0.00 in
11:04 67.3 °F 48.6 °F 30.11 in SW 0.7 mph 3.8 mph 51% 0.00 in
11:10 66.2 °F 48.6 °F 30.11 in SSW 0.7 mph 7.6 mph 53% 0.00 in
11:14 66.2 °F 49.1 °F 30.10 in SSW 1.6 mph 7.6 mph 54% 0.00 in
11:19 66.2 °F 49.1 °F 30.11 in WSW 1.6 mph 5.4 mph 54% 0.00 in
11:24 66.2 °F 49.6 °F 30.10 in SW 2.2 mph 6.0 mph 55% 0.00 in
11:29 66.6 °F 49.4 °F 30.10 in SSW 0.7 mph 6.0 mph 54% 0.00 in
11:34 67.5 °F 49.8 °F 30.11 in SSE 2.2 mph 3.1 mph 53% 0.00 in
11:39 68.9 °F 50.1 °F 30.11 in SE 0.7 mph 4.5 mph 51% 0.00 in
11:44 69.3 °F 49.8 °F 30.10 in East 0.7 mph 4.5 mph 50% 0.00 in
11:49 69.3 °F 49.8 °F 30.10 in SE 0.7 mph 6.0 mph 50% 0.00 in
11:55 69.8 °F 48.1 °F 30.10 in SE 0.7 mph 6.0 mph 46% 0.00 in
11:59 69.4 °F 48.9 °F 30.10 in East 1.6 mph 6.0 mph 48% 0.00 in
12:04 70.3 °F 50.3 °F 30.10 in SE 3.8 mph 6.9 mph 49% 0.00 in
12:09 70.0 °F 48.9 °F 30.10 in SE 3.1 mph 7.6 mph 47% 0.00 in
12:15 68.7 °F 48.3 °F 30.10 in SSE 1.6 mph 9.2 mph 48% 0.00 in
12:20 69.3 °F 48.2 °F 30.10 in South 2.2 mph 9.2 mph 47% 0.00 in
12:24 69.4 °F 47.2 °F 30.10 in SSW 4.5 mph 9.8 mph 45% 0.00 in
12:29 68.5 °F 47.5 °F 30.10 in South 5.4 mph 11.4 mph 47% 0.00 in
12:35 68.2 °F 47.2 °F 30.10 in South 3.1 mph 11.4 mph 47% 0.00 in
12:39 69.3 °F 48.2 °F 30.10 in South 4.5 mph 11.4 mph 47% 0.00 in
12:44 69.8 °F 46.3 °F 30.10 in South 3.1 mph 9.2 mph 43% 0.00 in
12:49 68.5 °F 44.6 °F 30.10 in SSW 3.8 mph 13.0 mph 42% 0.00 in
12:54 67.5 °F 44.8 °F 30.10 in South 3.1 mph 13.0 mph 44% 0.00 in
12:59 68.4 °F 45.6 °F 30.09 in South 1.6 mph 8.3 mph 44% 0.00 in
13:04 69.4 °F 46.0 °F 30.10 in South 4.5 mph 6.9 mph 43% 0.00 in
13:09 68.0 °F 43.4 °F 30.10 in South 3.1 mph 8.3 mph 41% 0.00 in
13:14 68.0 °F 45.9 °F 30.10 in South 1.6 mph 8.3 mph 45% 0.00 in
13:19 69.1 °F 46.3 °F 30.10 in South 3.1 mph 6.9 mph 44% 0.00 in
13:24 69.8 °F 45.1 °F 30.10 in SW 5.4 mph 7.6 mph 41% 0.00 in
13:29 69.1 °F 46.3 °F 30.10 in West 5.4 mph 9.2 mph 44% 0.00 in
13:35 69.6 °F 50.7 °F 30.10 in WSW 5.4 mph 9.2 mph 51% 0.00 in
13:40 70.3 °F 46.8 °F 30.10 in South 1.6 mph 8.3 mph 43% 0.00 in
13:44 71.1 °F 47.5 °F 30.11 in South 5.4 mph 9.8 mph 43% 0.00 in
13:49 71.2 °F 47.0 °F 30.10 in SSW 4.5 mph 9.8 mph 42% 0.00 in
13:55 71.6 °F 45.4 °F 30.10 in South 4.5 mph 8.3 mph 39% 0.00 in
13:59 70.2 °F 44.7 °F 30.10 in South 2.2 mph 10.7 mph 40% 0.00 in
14:04 70.2 °F 44.7 °F 30.10 in South 3.1 mph 10.7 mph 40% 0.00 in
14:09 70.3 °F 44.9 °F 30.11 in SE 1.6 mph 9.8 mph 40% 0.00 in
14:15 71.1 °F 45.5 °F 30.11 in SE 3.8 mph 6.9 mph 40% 0.00 in
14:20 69.1 °F 44.4 °F 30.11 in SSE 2.2 mph 9.8 mph 41% 0.00 in
14:24 70.2 °F 47.3 °F 30.10 in South 6.9 mph 13.0 mph 44% 0.00 in
14:29 70.9 °F 44.7 °F 30.11 in South 3.1 mph 13.0 mph 39% 0.00 in
14:34 71.2 °F 45.0 °F 30.10 in SSW 1.6 mph 9.8 mph 39% 0.00 in
14:39 71.1 °F 44.9 °F 30.10 in South 5.4 mph 11.4 mph 39% 0.00 in
14:44 69.3 °F 44.6 °F 30.10 in SSE 5.4 mph 11.4 mph 41% 0.00 in
14:49 68.9 °F 44.3 °F 30.10 in SSE 4.5 mph 13.6 mph 41% 0.00 in
14:55 68.0 °F 44.7 °F 30.10 in South 5.4 mph 13.6 mph 43% 0.00 in
14:59 67.6 °F 46.7 °F 30.10 in South 5.4 mph 11.4 mph 47% 0.00 in
15:05 69.6 °F 46.8 °F 30.10 in South 5.4 mph 12.1 mph 44% 0.00 in
15:10 70.3 °F 46.2 °F 30.10 in South 6.0 mph 12.1 mph 42% 0.00 in
15:15 70.9 °F 46.0 °F 30.10 in South 3.8 mph 11.4 mph 41% 0.00 in
15:19 71.6 °F 46.7 °F 30.10 in South 3.8 mph 11.4 mph 41% 0.00 in
15:24 70.9 °F 45.4 °F 30.09 in South 3.8 mph 11.4 mph 40% 0.00 in
15:29 70.7 °F 45.9 °F 30.09 in SSE 9.8 mph 13.6 mph 41% 0.00 in
15:35 70.0 °F 45.2 °F 30.09 in SSE 6.0 mph 14.5 mph 41% 0.00 in
15:39 70.3 °F 44.9 °F 30.09 in SSE 10.7 mph 14.5 mph 40% 0.00 in
15:45 70.2 °F 46.0 °F 30.09 in SE 6.9 mph 13.6 mph 42% 0.00 in
15:50 70.7 °F 47.1 °F 30.09 in SE 7.6 mph 13.6 mph 43% 0.00 in
15:54 70.7 °F 46.5 °F 30.09 in SE 9.8 mph 13.6 mph 42% 0.00 in
15:59 70.2 °F 45.4 °F 30.10 in SE 6.0 mph 13.6 mph 41% 0.00 in
16:04 69.6 °F 44.9 °F 30.10 in SE 3.1 mph 16.8 mph 41% 0.00 in
16:09 69.3 °F 44.6 °F 30.09 in SSE 4.5 mph 16.8 mph 41% 0.00 in
16:14 69.4 °F 45.4 °F 30.10 in SSE 4.5 mph 13.6 mph 42% 0.00 in
16:20 69.6 °F 44.9 °F 30.10 in SSE 6.0 mph 14.5 mph 41% 0.00 in
16:25 68.5 °F 43.3 °F 30.10 in South 5.4 mph 19.0 mph 40% 0.00 in
16:29 68.9 °F 44.9 °F 30.10 in SSE 6.0 mph 19.0 mph 42% 0.00 in
16:34 68.7 °F 44.7 °F 30.10 in SSE 9.2 mph 17.4 mph 42% 0.00 in
16:39 68.2 °F 44.2 °F 30.10 in South 9.8 mph 18.3 mph 42% 0.00 in
16:44 68.5 °F 44.6 °F 30.10 in South 10.7 mph 18.3 mph 42% 0.00 in
16:49 68.2 °F 44.2 °F 30.10 in SSE 9.8 mph 17.4 mph 42% 0.00 in
16:54 68.2 °F 44.2 °F 30.10 in South 8.3 mph 17.4 mph 42% 0.00 in
16:59 68.2 °F 43.6 °F 30.10 in South 4.5 mph 15.9 mph 41% 0.00 in
17:04 68.2 °F 43.0 °F 30.10 in South 9.2 mph 19.7 mph 40% 0.00 in
17:10 68.0 °F 42.8 °F 30.10 in SSE 6.0 mph 19.7 mph 40% 0.00 in
17:15 68.2 °F 43.6 °F 30.10 in SSE 9.2 mph 16.8 mph 41% 0.00 in
17:20 68.5 °F 43.9 °F 30.11 in SSE 8.3 mph 16.8 mph 41% 0.00 in
17:24 68.2 °F 43.6 °F 30.10 in South 3.8 mph 16.8 mph 41% 0.00 in
17:29 68.2 °F 43.0 °F 30.10 in SSE 6.0 mph 14.5 mph 40% 0.00 in
17:34 68.2 °F 43.6 °F 30.11 in SSE 7.6 mph 13.6 mph 41% 0.00 in
17:39 68.2 °F 43.6 °F 30.11 in SSE 5.4 mph 12.1 mph 41% 0.00 in
17:45 67.6 °F 43.7 °F 30.11 in SSE 4.5 mph 15.2 mph 42% 0.00 in
17:50 68.0 °F 43.4 °F 30.11 in South 9.2 mph 15.2 mph 41% 0.00 in
17:55 67.5 °F 43.0 °F 30.11 in SSE 7.6 mph 15.2 mph 41% 0.00 in
17:59 67.3 °F 43.4 °F 30.11 in SSE 7.6 mph 15.2 mph 42% 0.00 in
18:04 67.1 °F 43.3 °F 30.11 in SSE 3.8 mph 15.2 mph 42% 0.00 in
18:09 66.6 °F 42.8 °F 30.11 in SSE 7.6 mph 14.5 mph 42% 0.00 in
18:14 66.6 °F 44.6 °F 30.11 in SSE 12.1 mph 16.8 mph 45% 0.00 in
18:19 66.6 °F 44.0 °F 30.11 in SSE 10.7 mph 16.8 mph 44% 0.00 in
18:24 65.8 °F 42.7 °F 30.12 in South 7.6 mph 16.8 mph 43% 0.00 in
18:29 65.5 °F 42.4 °F 30.11 in South 6.9 mph 15.2 mph 43% 0.00 in
18:34 66.2 °F 43.1 °F 30.11 in SSE 5.4 mph 15.2 mph 43% 0.00 in
18:39 66.0 °F 43.5 °F 30.12 in SSE 6.9 mph 14.5 mph 44% 0.00 in
18:44 65.1 °F 42.1 °F 30.12 in SSE 3.8 mph 14.5 mph 43% 0.00 in
18:50 64.9 °F 42.5 °F 30.12 in SSE 4.5 mph 13.6 mph 44% 0.00 in
18:54 64.6 °F 42.8 °F 30.12 in South 6.0 mph 13.6 mph 45% 0.00 in
19:00 64.4 °F 42.6 °F 30.13 in South 4.5 mph 13.6 mph 45% 0.00 in
19:04 63.9 °F 42.7 °F 30.12 in SSE 4.5 mph 13.6 mph 46% 0.00 in
19:10 63.7 °F 43.1 °F 30.12 in SE 5.4 mph 12.1 mph 47% 0.00 in
19:15 63.5 °F 42.4 °F 30.13 in SE 10.7 mph 13.6 mph 46% 0.00 in
19:19 62.6 °F 40.4 °F 30.13 in SSE 11.4 mph 18.3 mph 44% 0.00 in
19:24 62.2 °F 41.2 °F 30.13 in SSE 8.3 mph 18.3 mph 46% 0.00 in
19:29 61.5 °F 42.2 °F 30.13 in SSE 6.0 mph 15.9 mph 49% 0.00 in
19:33 60.6 °F 42.4 °F 30.13 in SSE 6.9 mph 13.0 mph 51% 0.00 in
19:40 59.4 °F 41.7 °F 30.14 in SSE 5.4 mph 10.7 mph 52% 0.00 in
19:45 59.4 °F 42.2 °F 30.14 in SSE 5.4 mph 11.4 mph 53% 0.00 in
19:50 59.2 °F 42.6 °F 30.14 in SSE 6.0 mph 12.1 mph 54% 0.00 in
19:54 58.8 °F 42.7 °F 30.14 in SSE 3.8 mph 13.0 mph 55% 0.00 in
20:00 58.5 °F 43.3 °F 30.14 in South 6.9 mph 14.5 mph 57% 0.00 in
20:05 58.1 °F 43.9 °F 30.15 in South 6.0 mph 14.5 mph 59% 0.00 in
20:10 57.7 °F 44.4 °F 30.14 in SSE 4.5 mph 12.1 mph 61% 0.00 in
20:14 57.6 °F 44.2 °F 30.15 in SSE 6.0 mph 12.1 mph 61% 0.00 in
20:20 57.2 °F 44.7 °F 30.15 in SSE 3.8 mph 10.7 mph 63% 0.00 in
20:25 57.0 °F 45.4 °F 30.15 in SSE 6.0 mph 16.8 mph 65% 0.00 in
20:30 56.7 °F 45.4 °F 30.15 in SSE 7.6 mph 16.8 mph 66% 0.00 in
20:35 56.5 °F 45.7 °F 30.15 in South 3.8 mph 14.5 mph 67% 0.00 in
20:40 56.3 °F 45.9 °F 30.16 in SSE 6.9 mph 14.5 mph 68% 0.00 in
20:45 56.1 °F 46.1 °F 30.16 in SSE 5.4 mph 14.5 mph 69% 0.00 in
20:49 55.9 °F 46.3 °F 30.15 in SSE 6.9 mph 14.5 mph 70% 0.00 in
20:54 55.8 °F 46.1 °F 30.16 in SSE 6.0 mph 14.5 mph 70% 0.00 in
21:00 55.6 °F 46.0 °F 30.16 in SSE 5.4 mph 14.5 mph 70% 0.00 in
21:05 55.4 °F 45.8 °F 30.16 in SSE 5.4 mph 12.1 mph 70% 0.00 in
21:09 55.2 °F 45.2 °F 30.16 in South 3.8 mph 12.1 mph 69% 0.00 in
21:14 53.6 °F 43.7 °F 30.16 in SSE 7.6 mph 13.0 mph 69% 0.00 in
21:20 53.6 °F 43.7 °F 30.16 in SSE 5.4 mph 14.5 mph 69% 0.00 in
21:25 53.4 °F 43.9 °F 30.16 in SSE 3.8 mph 14.5 mph 70% 0.00 in
21:30 53.4 °F 43.9 °F 30.17 in South 6.0 mph 14.5 mph 70% 0.00 in
21:35 53.2 °F 44.1 °F 30.17 in South 5.4 mph 14.5 mph 71% 0.00 in
21:40 53.2 °F 44.1 °F 30.17 in South 6.9 mph 11.4 mph 71% 0.00 in
21:45 53.2 °F 44.5 °F 30.18 in SSE 5.4 mph 12.1 mph 72% 0.00 in
21:50 53.1 °F 44.3 °F 30.18 in SSE 3.8 mph 12.1 mph 72% 0.00 in
21:54 52.9 °F 44.1 °F 30.18 in SSE 6.9 mph 10.7 mph 72% 0.00 in
22:00 53.1 °F 44.6 °F 30.18 in SSE 5.4 mph 12.1 mph 73% 0.00 in
22:04 52.9 °F 44.1 °F 30.19 in SSE 7.6 mph 12.1 mph 72% 0.00 in
22:09 52.9 °F 44.1 °F 30.19 in SSE 3.8 mph 12.1 mph 72% 0.00 in
22:15 52.9 °F 44.1 °F 30.19 in SSE 5.4 mph 11.4 mph 72% 0.00 in
22:19 53.1 °F 44.3 °F 30.19 in SSE 6.9 mph 12.1 mph 72% 0.00 in
22:25 53.2 °F 44.5 °F 30.19 in SSE 5.4 mph 12.1 mph 72% 0.00 in
22:29 53.4 °F 44.6 °F 30.19 in SSE 6.0 mph 14.5 mph 72% 0.00 in
22:35 53.4 °F 44.3 °F 30.19 in SSE 5.4 mph 15.2 mph 71% 0.00 in
22:40 53.4 °F 44.3 °F 30.19 in SSE 6.0 mph 15.2 mph 71% 0.00 in
22:45 53.4 °F 44.3 °F 30.19 in SSE 4.5 mph 12.1 mph 71% 0.00 in
22:49 53.2 °F 44.1 °F 30.19 in SSE 6.0 mph 13.0 mph 71% 0.00 in
22:54 53.2 °F 44.1 °F 30.19 in SSE 5.4 mph 13.0 mph 71% 0.00 in
22:59 53.4 °F 44.3 °F 30.19 in SSE 4.5 mph 11.4 mph 71% 0.00 in
23:04 53.4 °F 44.3 °F 30.19 in SSE 5.4 mph 14.5 mph 71% 0.00 in
23:10 53.4 °F 44.3 °F 30.19 in SSE 6.0 mph 14.5 mph 71% 0.00 in
23:14 53.4 °F 44.3 °F 30.19 in SSE 6.0 mph 12.1 mph 71% 0.00 in
23:20 53.4 °F 44.3 °F 30.20 in SSE 5.4 mph 12.1 mph 71% 0.00 in
23:25 53.2 °F 44.1 °F 30.20 in SSE 4.5 mph 9.8 mph 71% 0.00 in
23:30 53.2 °F 44.5 °F 30.20 in SSE 5.4 mph 10.7 mph 72% 0.00 in
23:35 53.4 °F 44.6 °F 30.19 in SSE 3.8 mph 11.4 mph 72% 0.00 in
23:39 53.4 °F 44.6 °F 30.20 in SE 4.5 mph 11.4 mph 72% 0.00 in
23:44 53.2 °F 44.5 °F 30.19 in SSE 8.3 mph 10.7 mph 72% 0.00 in
23:49 53.2 °F 44.5 °F 30.20 in SSE 6.9 mph 10.7 mph 72% 0.00 in
23:55 53.4 °F 44.6 °F 30.19 in SSE 3.8 mph 9.8 mph 72% 0.00 in
23:59 53.4 °F 44.6 °F 30.19 in South 3.1 mph 13.6 mph 72% 0.00 in
Waitara, Taranaki. New Zealand Historic Data
Compliments of Weather Underground - 2 mb